createdAt,value
2023-08-29T00:01:11.359Z,99873.62
2023-08-29T00:03:38.393Z,99873.27
2023-08-29T00:06:06.424Z,99877.32
2023-08-29T00:08:34.266Z,99883.84
2023-08-29T00:11:03.559Z,99903.05
2023-08-29T00:13:31.039Z,99927.23
2023-08-29T00:15:58.295Z,99953.56
2023-08-29T00:18:25.310Z,99974.36
2023-08-29T00:20:53.080Z,99987.69
2023-08-29T00:23:19.929Z,99999.73
2023-08-29T00:25:49.627Z,100006.77
2023-08-29T00:28:16.577Z,100001.56
2023-08-29T00:30:45.213Z,99995.27
2023-08-29T00:33:12.472Z,99980.34
2023-08-29T00:35:40.604Z,99964.29
2023-08-29T00:38:07.938Z,99947.25
2023-08-29T00:40:35.903Z,99909.81
2023-08-29T00:43:06.119Z,99878.20
2023-08-29T00:45:35.515Z,99870.00
2023-08-29T00:48:02.625Z,99853.54
2023-08-29T00:50:30.939Z,99859.92
2023-08-29T00:53:00.244Z,99869.42
2023-08-29T00:55:27.593Z,99885.60
2023-08-29T00:57:57.769Z,99895.77
2023-08-29T01:00:28.820Z,99898.02
2023-08-29T01:02:57.471Z,99889.14
2023-08-29T01:05:24.608Z,99891.91
2023-08-29T01:07:59.154Z,99892.57
2023-08-29T01:10:38.343Z,99890.42
2023-08-29T01:13:26.417Z,99899.59
2023-08-29T01:15:57.135Z,99923.40
2023-08-29T01:18:25.583Z,99940.92
2023-08-29T01:20:57.043Z,99952.42
2023-08-29T01:23:32.688Z,99951.58
2023-08-29T01:26:14.700Z,99952.23
2023-08-29T01:28:44.082Z,99952.79
2023-08-29T01:31:11.650Z,99930.52
2023-08-29T01:33:43.392Z,99913.85
2023-08-29T01:36:10.246Z,99920.94
2023-08-29T01:38:37.074Z,99922.55
2023-08-29T01:41:03.932Z,99906.80
2023-08-29T01:43:30.860Z,99901.02
2023-08-29T01:45:57.884Z,99887.27
2023-08-29T01:48:25.645Z,99879.96
2023-08-29T01:50:53.741Z,99885.63
2023-08-29T01:53:20.705Z,99888.90
2023-08-29T01:55:48.857Z,99882.21
2023-08-29T01:58:16.521Z,99875.36
2023-08-29T02:00:43.786Z,99862.55
2023-08-29T02:03:10.814Z,99832.33
2023-08-29T02:05:37.858Z,99802.05
2023-08-29T02:08:05.260Z,99779.80
2023-08-29T02:10:33.794Z,99753.91
2023-08-29T02:13:00.637Z,99727.56
2023-08-29T02:15:27.586Z,99685.99
2023-08-29T02:17:54.948Z,99648.80
2023-08-29T02:20:21.980Z,99635.74
2023-08-29T02:22:48.818Z,99612.05
2023-08-29T02:25:15.765Z,99577.12
2023-08-29T02:27:42.602Z,99547.75
2023-08-29T02:30:11.083Z,99498.58
2023-08-29T02:32:39.326Z,99461.11
2023-08-29T02:35:07.806Z,99501.55
2023-08-29T02:37:35.603Z,99568.63
2023-08-29T02:40:06.991Z,99611.67
2023-08-29T02:42:35.839Z,99640.54
2023-08-29T02:45:06.784Z,99681.96
2023-08-29T02:47:33.782Z,99698.67
2023-08-29T02:50:00.672Z,99686.63
2023-08-29T02:52:27.707Z,99671.68
2023-08-29T02:54:55.066Z,99647.57
2023-08-29T02:57:21.905Z,99633.27
2023-08-29T02:59:48.743Z,99638.14
2023-08-29T03:02:15.687Z,99634.08
2023-08-29T03:04:43.044Z,99624.42
2023-08-29T03:07:10.289Z,99600.57
2023-08-29T03:09:37.538Z,99600.77
2023-08-29T03:12:05.718Z,99615.14
2023-08-29T03:14:33.079Z,99605.52
2023-08-29T03:17:00.218Z,99592.48
2023-08-29T03:19:27.465Z,99588.13
2023-08-29T03:21:54.265Z,99591.52
2023-08-29T03:24:21.149Z,99591.82
2023-08-29T03:26:47.992Z,99600.06
2023-08-29T03:29:15.035Z,99594.21
2023-08-29T03:31:42.597Z,99570.56
2023-08-29T03:34:09.642Z,99555.42
2023-08-29T03:36:36.787Z,99564.63
2023-08-29T03:39:03.938Z,99569.20
2023-08-29T03:41:31.010Z,99569.34
2023-08-29T03:43:57.928Z,99564.15
2023-08-29T03:46:24.803Z,99569.88
2023-08-29T03:48:52.119Z,99579.77
2023-08-29T03:51:19.779Z,99585.22
2023-08-29T03:53:46.636Z,99583.97
2023-08-29T03:56:14.295Z,99584.01
2023-08-29T03:58:42.557Z,99591.62
2023-08-29T04:01:12.284Z,99588.82
2023-08-29T04:03:39.577Z,99577.12
2023-08-29T04:06:07.483Z,99554.02
2023-08-29T04:08:34.335Z,99536.58
2023-08-29T04:11:04.349Z,99539.23
2023-08-29T04:13:31.183Z,99532.05
2023-08-29T04:16:04.549Z,99525.04
2023-08-29T04:18:32.973Z,99541.42
2023-08-29T04:21:00.206Z,99540.86
2023-08-29T04:23:27.253Z,99546.42
2023-08-29T04:25:59.620Z,99560.34
2023-08-29T04:28:27.693Z,99560.08
2023-08-29T04:30:55.252Z,99551.80
2023-08-29T04:33:23.336Z,99540.52
2023-08-29T04:35:52.410Z,99541.77
2023-08-29T04:38:19.765Z,99544.64
2023-08-29T04:40:46.548Z,99555.34
2023-08-29T04:43:13.557Z,99557.59
2023-08-29T04:45:41.227Z,99561.04
2023-08-29T04:48:08.473Z,99567.17
2023-08-29T04:50:36.326Z,99576.20
2023-08-29T04:53:04.506Z,99590.23
2023-08-29T04:55:31.752Z,99607.23
2023-08-29T04:57:59.205Z,99607.95
2023-08-29T05:00:26.150Z,99635.34
2023-08-29T05:02:53.181Z,99648.55
2023-08-29T05:05:20.147Z,99662.45
2023-08-29T05:07:47.299Z,99675.11
2023-08-29T05:10:14.333Z,99687.77
2023-08-29T05:12:42.096Z,99704.23
2023-08-29T05:15:09.671Z,99720.06
2023-08-29T05:17:37.135Z,99729.14
2023-08-29T05:20:05.332Z,99721.90
2023-08-29T05:22:32.227Z,99720.35
2023-08-29T05:24:59.066Z,99719.67
2023-08-29T05:27:26.011Z,99714.51
2023-08-29T05:29:52.950Z,99710.67
2023-08-29T05:32:19.804Z,99695.14
2023-08-29T05:34:46.740Z,99690.85
2023-08-29T05:37:13.583Z,99687.16
2023-08-29T05:39:40.457Z,99691.86
2023-08-29T05:42:07.363Z,99685.47
2023-08-29T05:44:34.207Z,99679.04
2023-08-29T05:47:01.253Z,99669.80
2023-08-29T05:49:28.298Z,99666.13
2023-08-29T05:51:55.241Z,99657.34
2023-08-29T05:54:22.185Z,99653.23
2023-08-29T05:56:49.028Z,99637.88
2023-08-29T05:59:16.178Z,99620.09
2023-08-29T06:01:43.123Z,99598.39
2023-08-29T06:04:09.965Z,99583.88
2023-08-29T06:06:40.692Z,99575.52
2023-08-29T06:09:11.435Z,99563.31
2023-08-29T06:11:38.265Z,99551.80
2023-08-29T06:14:05.130Z,99555.17
2023-08-29T06:16:32.162Z,99559.63
2023-08-29T06:18:59.326Z,99562.18
2023-08-29T06:21:26.352Z,99554.88
2023-08-29T06:23:53.357Z,99540.58
2023-08-29T06:26:20.748Z,99529.38
2023-08-29T06:28:47.996Z,99530.85
2023-08-29T06:31:15.459Z,99540.84
2023-08-29T06:33:42.398Z,99543.10
2023-08-29T06:36:09.344Z,99548.71
2023-08-29T06:38:37.511Z,99566.55
2023-08-29T06:41:05.484Z,99580.02
2023-08-29T06:43:32.525Z,99592.61
2023-08-29T06:45:59.443Z,99601.45
2023-08-29T06:48:26.618Z,99607.77
2023-08-29T06:50:53.969Z,99621.67
2023-08-29T06:53:20.809Z,99633.52
2023-08-29T06:55:47.653Z,99639.30
2023-08-29T06:58:14.800Z,99640.77
2023-08-29T07:00:41.753Z,99636.28
2023-08-29T07:03:08.927Z,99630.98
2023-08-29T07:05:37.068Z,99634.45
2023-08-29T07:08:05.409Z,99638.49
2023-08-29T07:10:32.803Z,99637.69
2023-08-29T07:12:59.637Z,99636.37
2023-08-29T07:15:26.705Z,99623.08
2023-08-29T07:17:54.731Z,99610.55
2023-08-29T07:20:21.958Z,99598.46
2023-08-29T07:22:48.951Z,99596.74
2023-08-29T07:25:18.760Z,99597.63
2023-08-29T07:27:45.601Z,99600.33
2023-08-29T07:30:16.351Z,99598.21
2023-08-29T07:32:44.840Z,99600.52
2023-08-29T07:35:11.857Z,99607.04
2023-08-29T07:37:38.807Z,99615.39
2023-08-29T07:40:06.311Z,99613.88
2023-08-29T07:42:33.215Z,99613.96
2023-08-29T07:45:00.679Z,99614.66
2023-08-29T07:47:27.960Z,99615.81
2023-08-29T07:49:54.864Z,99612.93
2023-08-29T07:52:21.692Z,99611.13
2023-08-29T07:54:48.641Z,99605.77
2023-08-29T07:57:15.495Z,99604.29
2023-08-29T07:59:42.629Z,99605.52
2023-08-29T08:02:09.784Z,99618.51
2023-08-29T08:04:37.453Z,99623.41
2023-08-29T08:07:04.686Z,99618.57
2023-08-29T08:09:32.245Z,99621.31
2023-08-29T08:12:01.134Z,99615.22
2023-08-29T08:14:28.078Z,99604.04
2023-08-29T08:16:55.075Z,99604.45
2023-08-29T08:19:21.969Z,99615.86
2023-08-29T08:21:51.111Z,99618.13
2023-08-29T08:24:18.409Z,99611.84
2023-08-29T08:26:45.403Z,99626.26
2023-08-29T08:29:12.300Z,99641.14
2023-08-29T08:31:39.389Z,99637.38
2023-08-29T08:34:06.209Z,99640.66
2023-08-29T08:36:33.434Z,99646.09
2023-08-29T08:39:00.289Z,99646.98
2023-08-29T08:41:27.222Z,99651.33
2023-08-29T08:43:56.038Z,99661.67
2023-08-29T08:46:23.045Z,99663.27
2023-08-29T08:48:50.103Z,99664.91
2023-08-29T08:51:20.628Z,99665.45
2023-08-29T08:53:47.880Z,99660.49
2023-08-29T08:56:15.026Z,99661.65
2023-08-29T08:58:42.291Z,99662.92
2023-08-29T09:01:09.178Z,99659.09
2023-08-29T09:03:36.250Z,99648.26
2023-08-29T09:06:03.313Z,99640.78
2023-08-29T09:08:32.319Z,99637.52
2023-08-29T09:11:02.637Z,99638.56
2023-08-29T09:13:30.698Z,99638.86
2023-08-29T09:16:01.992Z,99639.76
2023-08-29T09:18:32.368Z,99639.63
2023-08-29T09:21:01.257Z,99631.88
2023-08-29T09:23:30.454Z,99633.00
2023-08-29T09:26:00.383Z,99635.48
2023-08-29T09:28:28.904Z,99639.45
2023-08-29T09:30:57.035Z,99645.33
2023-08-29T09:33:23.860Z,99652.70
2023-08-29T09:35:50.905Z,99652.18
2023-08-29T09:38:19.240Z,99661.63
2023-08-29T09:40:49.747Z,99657.65
2023-08-29T09:43:17.879Z,99656.98
2023-08-29T09:45:55.314Z,99652.48
2023-08-29T09:48:23.672Z,99648.15
2023-08-29T09:50:51.610Z,99643.52
2023-08-29T09:53:20.560Z,99631.91
2023-08-29T09:55:50.314Z,99621.13
2023-08-29T09:58:18.588Z,99617.60
2023-08-29T10:00:46.343Z,99620.52
2023-08-29T10:03:13.658Z,99619.44
2023-08-29T10:05:45.070Z,99620.48
2023-08-29T10:08:11.901Z,99619.46
2023-08-29T10:10:43.896Z,99618.65
2023-08-29T10:13:11.822Z,99611.08
2023-08-29T10:15:43.704Z,99604.44
2023-08-29T10:18:11.824Z,99611.10
2023-08-29T10:20:40.535Z,99617.27
2023-08-29T10:23:07.991Z,99598.63
2023-08-29T10:25:37.189Z,99593.08
2023-08-29T10:28:05.491Z,99594.16
2023-08-29T10:30:33.022Z,99588.23
2023-08-29T10:33:02.047Z,99591.55
2023-08-29T10:35:32.438Z,99607.02
2023-08-29T10:38:11.341Z,99619.72
2023-08-29T10:40:40.659Z,99620.61
2023-08-29T10:43:24.225Z,99620.69
2023-08-29T10:46:00.180Z,99620.17
2023-08-29T10:48:30.888Z,99625.87
2023-08-29T10:51:22.544Z,99635.58
2023-08-29T10:53:54.461Z,99638.53
2023-08-29T10:56:27.999Z,99640.95
2023-08-29T10:58:56.176Z,99641.54
2023-08-29T11:01:29.191Z,99644.55
2023-08-29T11:03:57.461Z,99640.48
2023-08-29T11:06:26.182Z,99638.36
2023-08-29T11:09:21.593Z,99638.86
2023-08-29T11:12:08.424Z,99635.02
2023-08-29T11:14:51.320Z,99628.66
2023-08-29T11:17:23.790Z,99627.34
2023-08-29T11:19:58.626Z,99625.02
2023-08-29T11:22:28.941Z,99634.71
2023-08-29T11:24:56.788Z,99641.56
2023-08-29T11:27:25.435Z,99645.98
2023-08-29T11:30:11.142Z,99646.88
2023-08-29T11:32:50.394Z,99638.17
2023-08-29T11:35:17.247Z,99638.36
2023-08-29T11:37:44.212Z,99640.70
2023-08-29T11:40:12.371Z,99650.29
2023-08-29T11:43:12.669Z,99652.36
2023-08-29T11:45:45.371Z,99652.30
2023-08-29T11:48:42.742Z,99650.48
2023-08-29T11:51:09.870Z,99645.06
2023-08-29T11:53:38.048Z,99631.29
2023-08-29T11:56:06.633Z,99615.33
2023-08-29T11:58:36.028Z,99610.26
2023-08-29T12:01:04.098Z,99605.66
2023-08-29T12:03:35.224Z,99599.13
2023-08-29T12:06:04.436Z,99607.66
2023-08-29T12:08:40.292Z,99617.42
2023-08-29T12:11:08.668Z,99622.27
2023-08-29T12:13:36.842Z,99632.77
2023-08-29T12:16:05.239Z,99650.56
2023-08-29T12:18:33.392Z,99648.00
2023-08-29T12:21:29.924Z,99652.48
2023-08-29T12:24:09.464Z,99653.44
2023-08-29T12:26:36.817Z,99654.32
2023-08-29T12:29:03.969Z,99646.91
2023-08-29T12:31:30.809Z,99638.47
2023-08-29T12:33:57.652Z,99646.48
2023-08-29T12:36:24.493Z,99645.27
2023-08-29T12:38:51.433Z,99643.33
2023-08-29T12:41:18.682Z,99637.67
2023-08-29T12:43:45.741Z,99641.09
2023-08-29T12:46:12.593Z,99635.95
2023-08-29T12:48:39.516Z,99637.73
2023-08-29T12:51:08.405Z,99636.70
2023-08-29T12:53:35.357Z,99638.08
2023-08-29T12:56:03.054Z,99643.23
2023-08-29T12:58:29.951Z,99643.00
2023-08-29T13:00:57.108Z,99640.84
2023-08-29T13:03:24.031Z,99636.39
2023-08-29T13:05:52.627Z,99638.38
2023-08-29T13:08:19.975Z,99637.22
2023-08-29T13:10:46.922Z,99639.83
2023-08-29T13:13:13.865Z,99645.31
2023-08-29T13:15:50.493Z,99642.70
2023-08-29T13:18:19.260Z,99636.23
2023-08-29T13:20:46.184Z,99635.75
2023-08-29T13:23:13.008Z,99634.86
2023-08-29T13:25:39.916Z,99634.90
2023-08-29T13:28:07.262Z,99636.91
2023-08-29T13:30:34.475Z,99641.73
2023-08-29T13:33:01.554Z,99644.13
2023-08-29T13:35:28.547Z,99648.08
2023-08-29T13:37:55.389Z,99651.68
2023-08-29T13:40:22.237Z,99653.94
2023-08-29T13:42:50.296Z,99649.55
2023-08-29T13:45:17.248Z,99637.95
2023-08-29T13:47:45.528Z,99625.47
2023-08-29T13:50:12.576Z,99626.11
2023-08-29T13:52:39.416Z,99621.86
2023-08-29T13:55:06.941Z,99617.73
2023-08-29T13:57:33.918Z,99614.92
2023-08-29T14:00:00.746Z,99616.52
2023-08-29T14:02:28.209Z,99625.01
2023-08-29T14:04:55.162Z,99634.37
2023-08-29T14:07:22.094Z,99637.19
2023-08-29T14:09:49.051Z,99635.18
2023-08-29T14:12:15.877Z,99632.85
2023-08-29T14:14:42.919Z,99631.18
2023-08-29T14:17:09.761Z,99626.42
2023-08-29T14:19:36.612Z,99628.94
2023-08-29T14:22:05.332Z,99628.59
2023-08-29T14:24:32.686Z,99626.56
2023-08-29T14:26:59.704Z,99626.98
2023-08-29T14:29:31.029Z,99623.05
2023-08-29T14:31:58.734Z,99622.67
2023-08-29T14:34:25.639Z,99617.45
2023-08-29T14:36:52.782Z,99618.23
2023-08-29T14:39:19.625Z,99617.67
2023-08-29T14:41:46.623Z,99613.70
2023-08-29T14:44:13.628Z,99615.45
2023-08-29T14:46:41.787Z,99612.63
2023-08-29T14:49:08.628Z,99613.45
2023-08-29T14:51:35.467Z,99621.55
2023-08-29T14:54:04.041Z,99624.64
2023-08-29T14:56:31.819Z,99627.62
2023-08-29T14:59:00.333Z,99636.09
2023-08-29T15:01:27.568Z,99643.65
2023-08-29T15:03:54.782Z,99640.04
2023-08-29T15:06:21.742Z,99638.60
2023-08-29T15:08:48.882Z,99637.45
2023-08-29T15:11:16.245Z,99638.31
2023-08-29T15:13:43.097Z,99645.09
2023-08-29T15:16:10.077Z,99649.64
2023-08-29T15:18:37.078Z,99648.86
2023-08-29T15:21:04.066Z,99655.22
2023-08-29T15:23:30.999Z,99644.98
2023-08-29T15:25:58.522Z,99638.34
2023-08-29T15:28:34.777Z,99632.92
2023-08-29T15:31:03.774Z,99628.85
2023-08-29T15:33:31.530Z,99626.11
2023-08-29T15:35:58.993Z,99617.44
2023-08-29T15:38:26.276Z,99614.80
2023-08-29T15:40:55.916Z,99619.96
2023-08-29T15:43:26.706Z,99621.55
2023-08-29T15:45:54.890Z,99619.95
2023-08-29T15:48:22.117Z,99624.16
2023-08-29T15:50:49.254Z,99632.84
2023-08-29T15:53:16.394Z,99632.95
2023-08-29T15:55:44.475Z,99629.19
2023-08-29T15:58:14.386Z,99622.70
2023-08-29T16:00:41.328Z,99618.76
2023-08-29T16:03:08.795Z,99618.06
2023-08-29T16:05:36.782Z,99618.87
2023-08-29T16:08:04.209Z,99619.66
2023-08-29T16:10:31.273Z,99622.29
2023-08-29T16:12:58.300Z,99621.25
2023-08-29T16:15:25.252Z,99617.70
2023-08-29T16:17:52.258Z,99613.40
2023-08-29T16:20:19.547Z,99608.69
2023-08-29T16:22:47.415Z,99610.48
2023-08-29T16:25:15.170Z,99608.32
2023-08-29T16:27:42.113Z,99610.52
2023-08-29T16:30:11.300Z,99615.30
2023-08-29T16:32:40.604Z,99614.57
2023-08-29T16:35:08.369Z,99613.02
2023-08-29T16:37:38.036Z,99609.79
2023-08-29T16:40:07.028Z,99605.05
2023-08-29T16:42:33.822Z,99612.25
2023-08-29T16:45:00.959Z,99614.12
2023-08-29T16:47:27.917Z,99616.89
2023-08-29T16:49:54.946Z,99610.36
2023-08-29T16:52:21.786Z,99608.98
2023-08-29T16:54:48.834Z,99605.29
2023-08-29T16:57:17.636Z,99603.21
2023-08-29T16:59:59.117Z,99600.17
2023-08-29T17:02:26.975Z,99602.77
2023-08-29T17:04:55.050Z,99602.02
2023-08-29T17:07:22.396Z,99601.11
2023-08-29T17:09:49.340Z,99607.08
2023-08-29T17:12:20.998Z,99611.42
2023-08-29T17:14:50.088Z,99615.59
2023-08-29T17:17:17.339Z,99616.65
2023-08-29T17:19:44.586Z,99624.36
2023-08-29T17:22:11.542Z,99622.30
2023-08-29T17:24:38.893Z,99625.16
2023-08-29T17:27:06.645Z,99625.67
2023-08-29T17:29:33.593Z,99633.86
2023-08-29T17:32:00.760Z,99641.33
2023-08-29T17:34:28.091Z,99643.42
2023-08-29T17:36:57.289Z,99648.60
2023-08-29T17:39:24.133Z,99649.04
2023-08-29T17:41:50.977Z,99645.95
2023-08-29T17:44:17.812Z,99641.49
2023-08-29T17:46:44.754Z,99648.55
2023-08-29T17:49:11.910Z,99645.21
2023-08-29T17:51:39.566Z,99642.49
2023-08-29T17:54:06.616Z,99641.23
2023-08-29T17:56:33.655Z,99650.14
2023-08-29T17:59:00.600Z,99651.88
2023-08-29T18:01:27.855Z,99659.50
2023-08-29T18:03:55.768Z,99663.84
2023-08-29T18:06:25.481Z,99669.83
2023-08-29T18:08:54.524Z,99659.83
2023-08-29T18:11:22.384Z,99667.70
2023-08-29T18:13:49.327Z,99680.73
2023-08-29T18:16:16.806Z,99671.97
2023-08-29T18:18:44.134Z,99674.60
2023-08-29T18:21:12.921Z,99675.20
2023-08-29T18:23:39.864Z,99670.27
2023-08-29T18:26:08.347Z,99664.04
2023-08-29T18:28:35.503Z,99658.81
2023-08-29T18:31:06.076Z,99653.06
2023-08-29T18:33:35.729Z,99661.61
2023-08-29T18:36:02.897Z,99664.14
2023-08-29T18:38:30.947Z,99667.94
2023-08-29T18:40:58.714Z,99674.36
2023-08-29T18:43:25.672Z,99672.51
2023-08-29T18:45:52.537Z,99671.59
2023-08-29T18:48:20.973Z,99670.96
2023-08-29T18:50:47.924Z,99669.38
2023-08-29T18:53:14.869Z,99670.56
2023-08-29T18:55:42.652Z,99663.64
2023-08-29T18:58:09.935Z,99663.54
2023-08-29T19:00:38.270Z,99662.11
2023-08-29T19:03:05.350Z,99659.92
2023-08-29T19:05:34.743Z,99655.13
2023-08-29T19:08:02.051Z,99660.39
2023-08-29T19:10:28.893Z,99666.03
2023-08-29T19:12:55.957Z,99660.83
2023-08-29T19:15:22.986Z,99655.73
2023-08-29T19:17:49.838Z,99656.88
2023-08-29T19:20:18.420Z,99660.89
2023-08-29T19:22:45.458Z,99666.98
2023-08-29T19:25:12.396Z,99672.95
2023-08-29T19:27:39.244Z,99669.54
2023-08-29T19:30:10.179Z,99667.23
2023-08-29T19:32:37.357Z,99658.83
2023-08-29T19:35:04.918Z,99645.74
2023-08-29T19:37:32.851Z,99640.60
2023-08-29T19:39:59.799Z,99635.20
2023-08-29T19:42:26.636Z,99634.48
2023-08-29T19:44:53.381Z,99632.90
2023-08-29T19:47:24.113Z,99626.09
2023-08-29T19:49:51.463Z,99621.96
2023-08-29T19:52:18.519Z,99618.64
2023-08-29T19:54:45.397Z,99620.98
2023-08-29T19:57:13.418Z,99628.45
2023-08-29T19:59:40.630Z,99626.25
2023-08-29T20:02:10.069Z,99626.97
2023-08-29T20:04:37.215Z,99630.42
2023-08-29T20:07:04.384Z,99626.77
2023-08-29T20:09:32.129Z,99615.61
2023-08-29T20:11:59.076Z,99607.71
2023-08-29T20:14:29.599Z,99608.24
2023-08-29T20:16:59.598Z,99606.88
2023-08-29T20:19:26.558Z,99603.96
2023-08-29T20:21:53.518Z,99596.94
2023-08-29T20:24:24.031Z,99590.70
2023-08-29T20:26:51.914Z,99589.80
2023-08-29T20:29:18.851Z,99589.30
2023-08-29T20:31:45.800Z,99590.40
2023-08-29T20:34:12.761Z,99587.39
2023-08-29T20:36:39.679Z,99589.98
2023-08-29T20:39:07.438Z,99594.17
2023-08-29T20:41:34.482Z,99591.39
2023-08-29T20:44:01.338Z,99596.89
2023-08-29T20:46:28.221Z,99604.18
2023-08-29T20:48:55.413Z,99606.50
2023-08-29T20:51:22.575Z,99616.02
2023-08-29T20:53:49.513Z,99611.38
2023-08-29T20:56:16.451Z,99608.04
2023-08-29T20:58:43.593Z,99610.36
2023-08-29T21:01:10.440Z,99613.58
2023-08-29T21:03:37.334Z,99615.35
2023-08-29T21:06:04.328Z,99614.58
2023-08-29T21:08:31.386Z,99613.23
2023-08-29T21:10:58.416Z,99612.66
2023-08-29T21:13:25.464Z,99613.67
2023-08-29T21:15:52.407Z,99616.94
2023-08-29T21:18:20.002Z,99613.20
2023-08-29T21:20:54.384Z,99607.38
2023-08-29T21:23:21.940Z,99610.86
2023-08-29T21:25:49.603Z,99606.11
2023-08-29T21:28:20.949Z,99608.95
2023-08-29T21:30:47.798Z,99622.06
2023-08-29T21:33:14.942Z,99629.98
2023-08-29T21:35:43.112Z,99640.73
2023-08-29T21:38:11.690Z,99641.17
2023-08-29T21:40:40.397Z,99643.19
2023-08-29T21:43:12.236Z,99641.95
2023-08-29T21:45:41.872Z,99639.04
2023-08-29T21:48:10.436Z,99633.73
2023-08-29T21:50:42.387Z,99631.81
2023-08-29T21:53:10.588Z,99633.60
2023-08-29T21:55:39.049Z,99636.90
2023-08-29T21:58:07.489Z,99637.75
2023-08-29T22:00:35.081Z,99636.46
2023-08-29T22:03:02.666Z,99641.58
2023-08-29T22:05:31.431Z,99647.41
2023-08-29T22:07:59.091Z,99652.15
2023-08-29T22:10:26.364Z,99653.73
2023-08-29T22:12:53.386Z,99652.48
2023-08-29T22:15:20.331Z,99644.52
2023-08-29T22:17:47.206Z,99639.23
2023-08-29T22:20:14.656Z,99640.02
2023-08-29T22:22:41.891Z,99649.05
2023-08-29T22:25:09.735Z,99661.09
2023-08-29T22:27:37.097Z,99665.11
2023-08-29T22:30:05.542Z,99663.36
2023-08-29T22:32:34.040Z,99662.04
2023-08-29T22:35:02.732Z,99655.68
2023-08-29T22:37:29.581Z,99655.00
2023-08-29T22:39:56.617Z,99651.10
2023-08-29T22:42:23.667Z,99644.92
2023-08-29T22:44:50.714Z,99641.38
2023-08-29T22:47:18.175Z,99639.56
2023-08-29T22:49:45.832Z,99638.77
2023-08-29T22:52:13.296Z,99634.85
2023-08-29T22:54:41.561Z,99630.52
2023-08-29T22:57:08.505Z,99629.73
2023-08-29T22:59:35.564Z,99627.31
2023-08-29T23:02:06.485Z,99624.29
2023-08-29T23:04:34.562Z,99620.33
2023-08-29T23:07:07.910Z,99625.13
2023-08-29T23:09:36.222Z,99623.55
2023-08-29T23:12:04.208Z,99619.57
2023-08-29T23:14:31.052Z,99617.69
2023-08-29T23:16:58.088Z,99617.79
2023-08-29T23:19:25.855Z,99620.08
2023-08-29T23:21:53.965Z,99616.10
2023-08-29T23:24:21.289Z,99616.69
2023-08-29T23:26:51.394Z,99615.92
2023-08-29T23:29:19.657Z,99616.02
2023-08-29T23:31:46.920Z,99618.09
2023-08-29T23:34:13.751Z,99610.42
2023-08-29T23:36:40.592Z,99603.68
2023-08-29T23:39:10.099Z,99600.28
2023-08-29T23:41:36.945Z,99601.35
2023-08-29T23:44:04.226Z,99602.78
2023-08-29T23:46:31.771Z,99599.96
2023-08-29T23:48:58.896Z,99592.30
2023-08-29T23:51:25.939Z,99587.85
2023-08-29T23:53:52.991Z,99588.09
2023-08-29T23:56:19.945Z,99588.73
2023-08-29T23:58:46.904Z,99587.11
